Abiquiu, New Mexico
Current Conditions -  °F | °C
As of 6:15 PM on Monday 20 Oct 2014 (Local Time) from KLAM Reporting Station
Scattered Clouds Scattered Clouds  
Wind Chill: 60°   Ceiling: Unl
Heat Index: 60°   Visibility: 10mi
Dew Point: 37°   Wind: 7mph
Humidity: 42%   Direction: 190°S
Pressure: 30.21"   Gusts: NA
Location:  36.21°N, 106.32°W
Report Text: KLAM 210015Z AUTO 19006KT 10SM SCT080 SCT110 15/03 A3021 RMK AO2 T01530025
Loading
Personal Weather Stations






























Interactive Weather Map
Tropical Storm Tracking
New forecast layout! Learn more

10-Day Weather Forecast

Advertisements
Track Severe Weather on mobile